Weather observations for the past three days for
Beaver County Airport
Metric (Imperial)
Date Time (edt) Wind (kph) Vis. (km) Weather Sky Cond. Temperature (ºC) Relative Humidity Wind Chill (°C) Heat Index (°C) Pressure Precipitation (cm)
Air Dwpt 6 hour altimeter (cm) sea level (mb) 1 hr 3 hr 6 hr
Max. Min.
04 22:15 SW 13 16.09 Mostly Cloudy BKN110 19.5 9.1 51% 75.57 0.0
04 21:55 SW 17 16.09 Partly Cloudy SCT110 19.6 9 51% 75.57 0.0
04 21:35 SW 17 G 28 16.09 Mostly Cloudy BKN100 20 9 49% 75.57 0.0
04 21:15 SW 17 G 28 16.09 Mostly Cloudy BKN100 BKN120 20 9 49% 75.54 0.0
04 20:55 SW 15 16.09 Mostly Cloudy SCT090 BKN120 20.1 9.1 49% 75.51 0.0
04 20:35 SW 19 G 26 16.09 Mostly Cloudy SCT090 BKN110 20.5 9 48% 75.49 0.0
04 20:15 SW 13 16.09 Partly Cloudy SCT110 20.5 9.2 48% 75.49 0.0
04 19:55 SW 15 16.09 Fair CLR 20.9 9.5 48% 75.46 0.0
04 19:35 SW 11 16.09 Fair CLR 21.5 9.6 47% 75.46 0.0
04 19:15 SW 20 G 31 16.09 Partly Cloudy SCT110 22.2 9.1 43% 75.49 0.0
04 18:55 SW 17 16.09 Mostly Cloudy SCT095 BKN110 21.8 8.9 44% 75.51 0.0
04 18:47 SW 13 16.09 Partly Cloudy SCT070 SCT080 22 9 44% 75.51 0.0
04 18:35 SW 20 G 31 16.09 Overcast SCT065 SCT070 OVC095 22.6 8.6 41% 75.54 0.0
04 18:15 SW 20 G 35 16.09 Overcast BKN055 OVC065 22 8.4 42% 75.54 0.0
04 17:55 SW 19 G 35 16.09 Overcast BKN055 OVC085 22.1 8.2 41% 75.51 0.0
04 17:47 W 20 G 26 16.09 Mostly Cloudy BKN055 BKN065 22 8 41% 75.54 0.0
04 17:35 SW 22 G 35 16.09 Mostly Cloudy SCT065 BKN085 22.6 8 39% 75.51 0.0
04 17:15 W 20 G 43 16.09 Partly Cloudy SCT055 SCT065 23.6 7.7 36% 75.51 0.0
04 16:55 W 11 G 30 16.09 Partly Cloudy SCT055 SCT065 23.5 8 37% 75.51 0.0
04 16:47 W 20 G 26 16.09 Partly Cloudy SCT055 SCT065 23 8 38% 75.51 0.0
04 16:35 SW 20 G 41 16.09 Fair CLR 23.4 7.3 36% 75.51 0.0
04 16:15 SW 19 G 37 16.09 Partly Cloudy SCT055 23.6 8.1 37% 75.54 0.0
04 15:55 SW 20 G 39 16.09 Partly Cloudy SCT055 23 7.6 37% 75.54 0.0
04 15:35 SW 26 G 33 16.09 Partly Cloudy SCT055 SCT070 22.8 7.7 38% 75.57 0.0
04 15:15 SW 26 G 37 16.09 Partly Cloudy SCT055 SCT065 23 7.7 38% 75.57 0.0
04 14:55 SW 19 G 33 16.09 Partly Cloudy SCT055 23 7.5 37% 75.59 0.0
04 14:47 W 20 G 26 16.09 Partly Cloudy SCT055 23 7 36% 75.59 0.0
04 14:35 SW 19 G 37 16.09 Partly Cloudy SCT055 22.4 7.1 37% 75.59 0.0
04 14:15 SW 26 G 35 16.09 Partly Cloudy SCT055 SCT065 22.2 6.8 37% 75.62 0.0
04 13:55 SW 26 G 37 16.09 Partly Cloudy SCT070 22.4 6.9 37% 75.62 0.0
04 13:35 W 20 G 31 16.09 Partly Cloudy SCT070 21.5 6.6 38% 75.64 0.0
04 13:15 SW 28 G 35 16.09 Fair CLR 21.1 6.3 38% 75.64 0.0
04 12:47 S 19 G 30 16.09 Fair CLR 21 6 38% 75.67 0.0
04 12:35 SW 20 G 28 16.09 Fair CLR 20.3 6.3 40% 75.69 0.0
04 12:15 SW 17 16.09 Fair CLR 20 6 40% 75.72 0.0
04 11:55 SW 15 G 28 16.09 Fair CLR 19 5.4 41% 75.74 0.0
04 11:47 SW 19 G 31 16.09 Fair CLR 19 6 43% 75.74 0.0
04 11:35 SW 22 16.09 Fair CLR 18.8 5.4 42% 75.77 0.0
04 11:15 W 20 G 30 16.09 Fair CLR 18.3 5 42% 75.77 0.0
04 10:55 W 15 16.09 Fair CLR 17.5 4.7 43% 75.77 0.0
04 10:47 SW 24 16.09 Fair CLR 18 5 43% 75.77 0.0
04 10:35 SW 17 16.09 Fair CLR 17.2 4.3 43% 75.77 0.0
04 10:15 SW 22 G 30 16.09 Fair CLR 16.9 4.3 43% 75.77 0.0
04 09:55 SW 19 G 26 16.09 Fair CLR 16.5 3.9 43% 75.77 0.0
04 09:47 SW 15 G 30 16.09 Fair CLR 16 3 42% 75.79 0.0
04 09:35 W 17 G 28 16.09 Fair CLR 15.8 3.6 44% 75.79 0.0
04 09:15 SW 22 G 31 16.09 Fair CLR 15 3.2 45% 75.82 0.0
04 08:55 SW 15 G 31 16.09 Fair CLR 14.5 2.8 46% 75.82 0.0
04 08:47 SW 19 G 30 16.09 Fair CLR 14 3 48% 75.82 0.0
04 08:35 SW 20 G 28 16.09 Fair CLR 14 2.7 47% 75.82 0.0
04 08:15 SW 15 G 28 16.09 Fair CLR 13.5 2.6 48% 75.79 0.0
04 07:55 SW 19 G 28 16.09 Fair CLR 12.7 2.2 49% 75.79 0.0
04 07:47 SW 19 G 28 16.09 Fair CLR 12 2 51% 75.77 0.0
04 07:35 SW 20 G 31 16.09 Partly Cloudy SCT060 12.1 2.1 51% 75.77 0.0
04 07:15 SW 13 G 28 16.09 Mostly Cloudy BKN060 11.5 1.7 51% 75.79 0.0
04 06:55 SW 17 16.09 Partly Cloudy SCT060 11.1 1.5 52% 75.77 0.0
04 06:47 SW 15 16.09 Mostly Cloudy BKN060 11 1 50% 75.77 0.0
04 06:35 SW 15 16.09 Mostly Cloudy BKN060 11.1 1.2 51% 75.77 0.0
04 06:15 SW 13 16.09 Mostly Cloudy BKN060 11 1 50% 75.79 0.0
04 05:55 SW 15 16.09 Partly Cloudy SCT060 11 0.7 49% 75.79 0.0
04 05:35 SW 13 16.09 Partly Cloudy SCT110 10.8 0.6 50% 75.82 0.0
04 05:15 SW 11 16.09 Mostly Cloudy SCT060 BKN110 11 0.5 49% 75.82 0.0
04 04:55 SW 9 16.09 Overcast SCT070 OVC110 11.5 0.5 47% 75.84 0.0
04 04:35 SW 15 16.09 Overcast OVC060 11.4 0.6 48% 75.84 0.0
04 04:15 SW 15 16.09 Overcast OVC060 11 0.9 50% 75.87 0.0
04 03:55 SW 13 16.09 Overcast BKN060 OVC110 10.7 1 51% 75.87 0.0
04 03:35 SW 11 16.09 Overcast OVC110 10.5 0.9 52% 75.9 0.0
04 03:15 SW 9 16.09 Overcast SCT070 OVC110 10.2 1.1 54% 75.9 0.0
04 02:55 SW 9 16.09 Overcast OVC070 10 1.2 55% 9 75.92 0.0
04 02:35 SW 11 16.09 Overcast SCT070 OVC110 10 1 54% 9 75.92 0.0
04 02:15 SW 9 16.09 Overcast OVC110 10.2 1 53% 75.95 0.0
04 01:55 SW 9 16.09 Overcast SCT070 OVC100 10.2 0.8 52% 75.95 0.0
04 01:35 SW 7 16.09 Overcast BKN070 BKN080 OVC100 10.3 0.7 52% 75.97 0.0
04 01:15 SW 6 16.09 Overcast OVC060 10.5 0.6 51% 75.97 0.0
04 00:55 SW 6 16.09 Overcast OVC060 10.6 0.1 49% 76 0.0
04 00:35 SW 6 16.09 Mostly Cloudy BKN070 10.6 0 48% 75.97 0.0
04 00:15 SW 7 16.09 Fair CLR 10.5 0 49% 76 0.0
03 23:55 W 11 16.09 Fair CLR 11 -0.1 47% 76.02 0.0
03 23:35 SW 13 16.09 Fair CLR 10.7 -0.5 46% 76.02 0.0
03 23:15 SW 11 16.09 Fair CLR 10.5 -0.4 47% 76 0.0
03 22:55 SW 9 16.09 Fair CLR 11.1 -0.6 45% 76 0.0
03 22:35 SW 7 16.09 Fair CLR 11.2 -0.6 44% 76 0.0
03 22:15 SW 9 16.09 Fair CLR 11.1 -0.5 45% 76.02 0.0
03 21:55 SW 7 16.09 Fair CLR 11.7 -0.8 42% 76.02 0.0
03 21:35 SW 9 16.09 Fair CLR 12 -0.8 41% 76.02 0.0
03 21:15 SW 7 16.09 Fair CLR 12.5 -0.8 40% 76 0.0
03 20:55 SW 7 16.09 Fair CLR 12.9 -0.9 39% 76 0.0
03 20:35 W 11 16.09 Partly Cloudy SCT070 13.2 -0.9 38% 76 0.0
03 20:15 W 9 16.09 Mostly Cloudy BKN070 13.9 -1.1 36% 76 0.0
03 19:55 W 13 16.09 Overcast OVC070 14.2 -1.2 35% 76 0.0
03 19:35 W 11 16.09 Mostly Cloudy BKN070 14.2 -1.5 34% 76 0.0
03 19:15 W 15 G 30 16.09 Overcast OVC070 14.7 -1.7 33% 76 0.0
03 18:55 SW 17 G 31 16.09 Overcast OVC070 15 -2 31% 76 0.0
03 18:35 SW 22 G 31 16.09 Overcast OVC070 15 -2.5 30% 76.02 0.0
03 18:15 W 13 G 31 16.09 Mostly Cloudy BKN070 15.3 -2.6 29% 76.02 0.0
03 17:55 W 19 G 28 16.09 Mostly Cloudy BKN070 16.6 -2.2 28% 76.02 0.0
03 17:35 W 26 G 35 16.09 Mostly Cloudy BKN070 17 -2.7 26% 76.02 0.0
03 17:15 SW 17 G 31 16.09 Mostly Cloudy BKN070 16.6 -2.2 28% 76 0.0
03 16:55 W 17 G 31 16.09 Mostly Cloudy BKN075 BKN085 16.5 -2.6 27% 76.02 0.0
03 16:35 W 17 G 30 16.09 Mostly Cloudy BKN075 16.6 -3.1 26% 76.02 0.0
03 16:15 W 24 G 37 16.09 Mostly Cloudy BKN075 16.4 -2.4 28% 76.05 0.0
03 15:55 W 20 G 33 16.09 Mostly Cloudy BKN075 15.8 -3 28% 76.07 0.0
03 15:35 W 19 16.09 Mostly Cloudy BKN065 16.7 -1.9 28% 76.1 0.0
03 15:15 W 17 G 35 16.09 Partly Cloudy SCT065 15.8 -3.8 26% 76.1 0.0
03 14:55 W 22 G 37 16.09 Partly Cloudy SCT065 16.5 -2.5 27% 76.15 0.0
03 14:35 W 15 G 31 16.09 Partly Cloudy SCT065 15 -3.2 29% 76.15 0.0
03 14:15 NW 20 G 33 16.09 Partly Cloudy SCT065 16 -1.9 29% 76.15 0.0
03 13:55 SW 17 G 35 16.09 Partly Cloudy SCT065 SCT080 15.4 -1.8 31% 76.17 0.0
03 13:35 W 26 G 35 16.09 Partly Cloudy SCT065 SCT080 15.4 -1.6 31% 76.2 0.0
03 13:15 NW 13 G 33 16.09 Partly Cloudy SCT065 14.7 -1.8 32% 76.2 0.0
03 12:35 W 17 G 35 16.09 Partly Cloudy SCT060 SCT075 14.6 -2 32% 76.23 0.0
03 12:15 W 17 G 30 16.09 Partly Cloudy SCT060 SCT075 13.5 -3 32% 76.25 0.0
03 11:55 W 15 16.09 Mostly Cloudy BKN065 13.1 -3.9 31% 76.28 0.0
03 11:35 W 20 G 30 16.09 Mostly Cloudy BKN065 12.2 -4 32% 76.28 0.0
03 11:15 SW 13 G 28 16.09 Partly Cloudy SCT065 12.2 -3.1 35% 76.28 0.0
03 10:55 W 11 16.09 Fair CLR 11.4 -2 40% 76.28 0.0
03 10:35 W 13 16.09 Fair CLR 11 -2.1 40% 76.28 0.0
03 10:15 W 22 G 30 16.09 Fair CLR 10.4 -2 42% 76.3 0.0
03 09:55 W 15 16.09 Fair CLR 10.1 -0.2 49% 76.3 0.0
03 09:35 W 15 16.09 Fair CLR 8.9 -0.8 51% 7 76.33 0.0
03 09:15 W 17 G 26 16.09 Fair CLR 8.1 -0.2 56% 6 76.33 0.0
03 08:55 W 19 G 26 16.09 Fair CLR 7.3 -0.2 59% 4 76.33 0.0
03 08:35 W 13 16.09 Fair CLR 6.7 -0.2 62% 4 76.3 0.0
03 08:15 W 11 16.09 Fair CLR 6 -0.2 65% 4 76.28 0.0
03 07:55 W 7 16.09 Fair CLR 5.3 0 69% 4 76.28 0.0
03 07:35 W 11 16.09 Fair CLR 4.5 0 73% 2 76.28 0.0
03 07:15 W 7 16.09 Fair CLR 3.5 0 78% 2 76.25 0.0
03 06:55 W 6 16.09 Fair CLR 2.7 0 83% 76.25 0.0
03 06:35 W 6 16.09 Fair CLR 2.6 -0.1 83% 76.23 0.0
03 06:15 W 7 16.09 Fair CLR 2.6 -0.1 83% 1 76.2 0.0
03 05:55 W 9 16.09 Fair CLR 2.7 0 83% 0 76.2 0.0
03 05:35 W 7 16.09 Fair CLR 2.6 -0.1 83% 1 76.2 0.0
03 05:15 W 9 16.09 Fair CLR 2.6 -0.3 81% 0 76.2 0.0
03 04:55 W 6 16.09 Fair CLR 2.6 -0.5 80% 76.2 0.0
03 04:35 W 6 16.09 Fair CLR 2.6 -0.6 80% 76.2 0.0
03 04:15 W 6 16.09 Fair CLR 2.7 -0.6 79% 76.2 0.0
03 03:55 W 7 16.09 Fair CLR 2.8 -0.5 79% 1 76.2 0.0
03 03:35 W 6 16.09 Fair CLR 3 -0.5 78% 76.2 0.0
03 03:15 W 6 16.09 Partly Cloudy SCT070 3.2 -0.6 76% 76.2 0.0
03 02:55 W 6 16.09 Overcast OVC070 3.6 -0.7 74% 76.2 0.0
03 02:35 Calm 16.09 Overcast OVC080 3.8 -0.7 73% 76.2 0.0
03 02:15 Calm 16.09 Overcast OVC080 3.9 -0.7 72% 76.2 0.0
03 01:55 W 6 16.09 Overcast OVC080 3.7 -0.8 73% 76.2 0.0
03 01:35 Calm 16.09 Overcast OVC080 3.8 -1 71% 76.23 0.0
03 01:15 Calm 16.09 Overcast OVC080 4 -0.7 72% 76.23 0.0
03 00:55 Calm 16.09 Overcast OVC080 3.8 -0.5 74% 76.23 0.0
03 00:35 Calm 16.09 Overcast OVC080 3.8 -0.4 74% 76.23 0.0
03 00:15 Calm 16.09 Overcast OVC080 3.9 -0.2 75% 76.23 0.0
02 23:55 Calm 16.09 Overcast OVC080 4 -0.3 74% 76.25 0.0
02 23:35 Calm 16.09 Overcast OVC080 4.2 -0.1 74% 76.25 0.0
02 23:15 NW 6 16.09 Mostly Cloudy BKN080 4.1 -0.2 74% 76.25 0.0
02 22:55 Calm 16.09 Mostly Cloudy BKN080 4.1 0 75% 76.25 0.0
02 22:35 Calm 16.09 Overcast OVC080 4.5 0 73% 76.25 0.0
02 22:15 Calm 16.09 Overcast OVC080 5 -0.3 69% 76.25 0.0
02 21:55 Calm 16.09 Overcast OVC070 5.5 -0.1 68% 76.28 0.0
02 21:35 Calm 16.09 Overcast SCT045 OVC070 5.6 0 68% 76.25 0.0
02 21:15 Calm 16.09 Overcast SCT045 OVC080 5.5 0 68% 76.25 0.0
02 20:55 Calm 16.09 Overcast SCT044 OVC080 5.6 -0.4 66% 76.25 0.0
02 20:35 Calm 16.09 Overcast OVC070 6 -0.2 65% 76.23 0.0
02 20:15 N 7 16.09 Overcast OVC070 6.2 -0.5 63% 5 76.23 0.0
02 19:55 Calm 16.09 Overcast OVC070 6.5 -0.6 61% 76.2 0.0
02 19:35 Calm 16.09 Overcast OVC070 6.5 -0.8 60% 76.2 0.0
02 19:15 N 6 16.09 Overcast OVC070 6.7 -1.1 58% 76.2 0.0
02 18:55 Calm 16.09 Overcast OVC070 7 -0.9 58% 76.2 0.0
02 18:35 N 6 16.09 Overcast SCT033 OVC070 7 -0.8 58% 76.2 0.0
02 18:15 NW 9 16.09 Overcast SCT048 OVC070 7.1 -0.4 59% 6 76.2 0.0
02 17:55 N 6 16.09 Overcast SCT028 OVC050 7.1 0 61% 76.2 0.0
02 17:35 Calm 16.09 Overcast SCT028 BKN046 OVC060 7 0.2 62% 76.2 0.0
02 17:15 N 7 16.09 Overcast SCT021 SCT043 OVC050 6.8 0.6 65% 6 76.2 0.0
02 16:55 N 7 16.09 Overcast BKN021 BKN029 OVC041 6.6 1 68% 5 76.17 0.0
02 16:35 N 7 16.09 Overcast SCT021 BKN030 OVC060 7 1.1 66% 6 76.2 0.0
02 16:15 N 7 16.09 Overcast SCT028 BKN039 OVC060 6.8 0.7 65% 6 76.2 0.0
02 15:55 N 7 16.09 Overcast SCT018 BKN026 OVC041 6.5 1 68% 5 76.2 0.0
02 15:35 N 15 16.09 Overcast SCT016 BKN026 OVC036 6.6 0.9 67% 4 76.2 0.0
02 15:15 NE 15 16.09 Overcast SCT016 BKN024 OVC041 7.3 2 69% 5 76.2 0.0
02 14:55 N 13 16.09 Overcast BKN024 BKN029 OVC034 7.2 1.4 67% 5 76.23 0.0
02 14:47 N 11 16.09 Overcast BKN024 OVC034 7 1 66% 5 76.23 0.0
02 14:35 N 9 16.09 Overcast SCT023 BKN033 OVC041 8 1 62% 7 76.23 0.0
02 14:15 N 11 16.09 Overcast BKN019 OVC027 8.1 1.3 63% 6 76.23 0.0
02 13:55 NE 11 16.09 Overcast BKN016 BKN022 OVC027 7.9 1.9 66% 6 76.23 0.0
02 13:47 N 9 16.09 Overcast BKN016 BKN022 OVC027 7 2 71% 5 76.23 0.0
02 13:35 N 11 16.09 Overcast BKN016 BKN022 OVC029 6.5 2.4 75% 5 76.23 0.0
02 13:15 N 9 16.09 Overcast BKN016 OVC022 6.9 2 71% 5 76.23 0.0
02 12:55 N 11 16.09 Overcast BKN014 OVC021 6.7 2.4 74% 5 76.23 0.0
02 12:47 NE 9 16.09 Overcast BKN014 OVC021 7 3 76% 5 76.2 0.0
02 12:35 N 9 16.09 Overcast BKN014 OVC022 6 2.6 79% 4 76.23 0.0
02 12:15 N 9 16.09 Overcast BKN013 BKN019 OVC027 5.7 2.7 81% 4 76.23 0.0
02 11:55 N 7 16.09 Overcast BKN009 OVC013 5.6 3 84% 4 76.2 0.0
02 11:47 NE 7 16.09 Overcast BKN009 OVC013 6 3 81% 5 76.2 0.0
02 11:35 NE 7 16.09 Overcast BKN007 OVC015 5.4 3.2 86% 4 76.2 0.0
02 11:15 NE 11 16.09 Overcast OVC007 5.5 3.4 87% 3 76.2 0.0
02 10:55 NE 9 16.09 Overcast BKN007 OVC012 5.2 3.5 89% 3 76.17 0.0
02 10:47 N 9 16.09 Overcast BKN005 OVC012 5 3 87% 3 76.17 0.0
02 10:35 NE 11 16.09 Overcast BKN005 OVC012 5.5 4.1 91% 3 76.17 0.0
02 10:15 N 9 11.27 Overcast OVC005 4.8 3.5 91% 3 76.17 0.0
02 09:55 N 7 11.27 Overcast OVC005 4.9 3.6 91% 3 76.15 0.0
02 09:47 Calm 8.05 Fog/Mist OVC005 5 4 93% 76.15 0.0
02 09:35 Calm 6.44 Fog/Mist OVC005 4.6 3.5 93% 76.15 0.0
02 09:15 Calm 8.05 Light Rain OVC007 4.5 3.5 93% 76.15 0.0
02 08:55 Calm 6.44 Fog/Mist BKN007 OVC014 3.8 2.7 93% 76.17 0.0
02 08:47 Calm 4.83 Light Rain OVC012 4 3 93% 76.17 0.0
02 08:35 Calm 4.83 Light Rain OVC012 3.7 2.6 93% 76.17 0.0
02 08:15 Calm 6.44 Light Drizzle SCT012 BKN020 OVC030 3.8 2.8 93% 76.17 0.0
02 07:55 Calm 2.41 Light Rain SCT001 BKN024 OVC030 3.6 2.5 93% 76.17 0.0
02 07:47 Calm 2.82 Heavy Rain SCT001 OVC024 4 3 93% 76.17 0.0
02 07:35 Calm 4.83 Fog/Mist SCT001 BKN024 OVC031 3.9 2.8 93% 76.17 0.0
02 07:15 W 6 2.41 Light Rain BKN001 BKN021 OVC026 3.6 2.5 93% 76.17 0.0
02 06:55 S 6 2.82 Fog/Mist BKN001 BKN035 OVC042 3.5 2.5 93% 76.15 0.0
02 06:35 SE 6 4.83 Fog/Mist SCT034 BKN040 OVC048 3.7 2.6 93% 76.15 0.0
02 06:15 Calm 6.44 Light Drizzle SCT024 BKN036 OVC049 3.5 2.2 91% 76.17 0.0
02 05:55 Calm 6.44 Light Rain OVC049 3.2 2 92% 76.17 0.0
02 05:35 Calm 8.05 Fog/Mist OVC049 3.4 2 91% 76.17 0.0
02 05:15 Calm 11.27 Overcast OVC047 3.6 2.3 91% 76.15 0.0
02 04:55 Calm 16.09 Overcast BKN047 OVC055 3.6 2.3 91% 76.15 0.0
02 04:35 Calm 16.09 Overcast OVC055 3.5 2.2 91% 76.15 0.0
02 04:15 Calm 11.27 Overcast OVC055 3.1 2 93% 76.15 0.0
02 03:55 W 6 11.27 Overcast OVC055 3.1 2 93% 76.15 0.0
02 03:35 W 6 11.27 Overcast SCT055 SCT070 OVC090 3 1.8 92% 76.15 0.0
02 03:15 W 6 16.09 Overcast OVC090 3.2 2 92% 76.15 0.0
02 02:55 Calm 16.09 Overcast OVC090 3.5 2.2 91% 76.15 0.0
02 02:35 Calm 16.09 Overcast SCT060 OVC090 3.5 2.2 91% 76.15 0.0
02 02:15 NW 6 16.09 Mostly Cloudy SCT070 BKN090 3.3 2.1 92% 76.17 0.0
02 01:55 NW 7 16.09 Partly Cloudy SCT070 SCT090 3 1.8 92% 1 76.2 0.0
02 01:35 W 6 16.09 Partly Cloudy SCT090 3.2 1.9 91% 76.2 0.0
02 01:15 NW 6 16.09 Partly Cloudy SCT090 3.3 2 91% 76.2 0.0
02 00:55 NW 6 16.09 Fair CLR 3.5 2.2 91% 76.2 0.0
02 00:35 NW 6 16.09 Fair CLR 3.7 2.5 92% 76.2 0.0
02 00:15 NW 7 16.09 Fair CLR 3.9 2.5 91% 2 76.2 0.0
01 23:55 Calm 16.09 Fair CLR 3.8 2.5 91% 76.2 0.0
01 23:35 Calm 16.09 Fair CLR 4 2.6 91% 76.2 0.0
01 23:15 NW 6 16.09 Partly Cloudy SCT080 4.2 2.9 91% 76.17 0.0
01 22:55 Calm 16.09 Partly Cloudy SCT080 4.3 2.9 91% 76.2 0.0
01 22:35 Calm 16.09 Partly Cloudy SCT080 4.6 3.1 90% 76.17 0.0
Date Time (edt) Wind (kph) Vis. (km) Weather Sky Cond. Air Dwpt Max. Min. Relative Humidity Wind Chill (°C) Heat Index (°C) altimeter (cm) sea level (mb) 1 hr 3 hr 6 hr
6 hour
Temperature (ºC) Pressure Precipitation (cm)